createdAt,value
2023-03-29T00:01:42.265Z,35.38
2023-03-29T00:04:10.214Z,37.48
2023-03-29T00:06:37.788Z,37.73
2023-03-29T00:09:09.891Z,36.47
2023-03-29T00:11:36.423Z,36.29
2023-03-29T00:14:02.932Z,36.79
2023-03-29T00:16:29.380Z,37.91
2023-03-29T00:18:55.969Z,38.00
2023-03-29T00:21:22.341Z,37.67
2023-03-29T00:23:48.718Z,36.88
2023-03-29T00:26:15.358Z,36.96
2023-03-29T00:28:41.938Z,38.00
2023-03-29T00:31:13.775Z,38.70
2023-03-29T00:33:41.309Z,39.26
2023-03-29T00:36:08.932Z,39.03
2023-03-29T00:38:36.187Z,38.76
2023-03-29T00:41:03.892Z,37.65
2023-03-29T00:43:30.698Z,38.71
2023-03-29T00:45:57.172Z,39.71
2023-03-29T00:48:27.860Z,40.70
2023-03-29T00:50:59.150Z,39.24
2023-03-29T00:53:49.015Z,40.71
2023-03-29T00:56:24.183Z,39.23
2023-03-29T00:58:57.384Z,38.27
2023-03-29T01:01:42.219Z,38.60
2023-03-29T01:04:21.001Z,39.66
2023-03-29T01:06:56.861Z,38.85
2023-03-29T01:09:27.051Z,37.88
2023-03-29T01:11:57.262Z,38.65
2023-03-29T01:14:33.765Z,40.62
2023-03-29T01:17:00.167Z,40.51
2023-03-29T01:19:31.948Z,41.78
2023-03-29T01:22:04.721Z,41.05
2023-03-29T01:24:46.161Z,41.63
2023-03-29T01:27:22.763Z,41.26
2023-03-29T01:29:55.169Z,40.91
2023-03-29T01:32:26.789Z,39.89
2023-03-29T01:34:57.630Z,40.30
2023-03-29T01:37:31.839Z,41.37
2023-03-29T01:39:58.345Z,40.38
2023-03-29T01:42:30.945Z,38.49
2023-03-29T01:45:22.875Z,37.92
2023-03-29T01:48:10.937Z,38.78
2023-03-29T01:50:43.382Z,37.72
2023-03-29T01:53:24.945Z,37.47
2023-03-29T01:55:55.462Z,36.00
2023-03-29T01:58:29.978Z,36.23
2023-03-29T02:00:59.740Z,37.80
2023-03-29T02:03:30.767Z,40.17
2023-03-29T02:05:59.082Z,39.50
2023-03-29T02:08:26.816Z,39.89
2023-03-29T02:10:53.579Z,39.28
2023-03-29T02:13:20.533Z,38.23
2023-03-29T02:15:48.004Z,37.93
2023-03-29T02:18:19.785Z,38.58
2023-03-29T02:20:50.736Z,37.00
2023-03-29T02:23:34.125Z,36.50
2023-03-29T02:26:03.850Z,36.56
2023-03-29T02:28:31.700Z,38.77
2023-03-29T02:31:03.222Z,40.57
2023-03-29T02:34:11.154Z,40.28
2023-03-29T02:36:46.615Z,40.55
2023-03-29T02:39:15.414Z,39.84
2023-03-29T02:41:45.762Z,41.28
2023-03-29T02:44:15.132Z,39.93
2023-03-29T02:46:43.668Z,37.91
2023-03-29T02:49:11.494Z,38.31
2023-03-29T02:51:38.675Z,41.79
2023-03-29T02:54:13.441Z,41.88
2023-03-29T02:56:45.208Z,42.22
2023-03-29T02:59:12.414Z,40.74
2023-03-29T03:01:43.822Z,41.38
2023-03-29T03:04:11.292Z,41.71
2023-03-29T03:06:38.508Z,41.80
2023-03-29T03:09:05.896Z,42.38
2023-03-29T03:11:33.786Z,41.79
2023-03-29T03:14:00.864Z,42.24
2023-03-29T03:16:27.990Z,42.84
2023-03-29T03:18:55.585Z,41.85
2023-03-29T03:21:22.895Z,41.90
2023-03-29T03:23:49.505Z,41.80
2023-03-29T03:26:17.804Z,40.48
2023-03-29T03:28:45.787Z,39.80
2023-03-29T03:31:15.700Z,41.15
2023-03-29T03:33:42.218Z,43.13
2023-03-29T03:36:11.717Z,43.17
2023-03-29T03:38:38.579Z,42.95
2023-03-29T03:41:07.166Z,43.70
2023-03-29T03:43:34.384Z,43.85
2023-03-29T03:46:01.546Z,43.17
2023-03-29T03:48:28.473Z,44.23
2023-03-29T03:50:58.117Z,43.82
2023-03-29T03:53:26.427Z,41.85
2023-03-29T03:55:55.834Z,43.56
2023-03-29T03:58:22.734Z,44.26
2023-03-29T04:00:50.481Z,43.73
2023-03-29T04:03:17.989Z,43.08
2023-03-29T04:05:45.585Z,44.26
2023-03-29T04:08:13.129Z,44.26
2023-03-29T04:10:39.564Z,43.85
2023-03-29T04:13:06.559Z,44.85
2023-03-29T04:15:35.705Z,45.15
2023-03-29T04:18:02.174Z,44.57
2023-03-29T04:20:28.913Z,43.79
2023-03-29T04:22:55.316Z,44.72
2023-03-29T04:25:22.259Z,45.52
2023-03-29T04:27:50.391Z,44.45
2023-03-29T04:30:17.195Z,44.18
2023-03-29T04:32:43.593Z,44.70
2023-03-29T04:35:10.105Z,42.41
2023-03-29T04:37:40.221Z,44.53
2023-03-29T04:40:14.246Z,45.15
2023-03-29T04:42:45.798Z,45.55
2023-03-29T04:45:17.935Z,45.76
2023-03-29T04:47:45.647Z,44.19
2023-03-29T04:50:13.749Z,43.38
2023-03-29T04:52:40.859Z,44.27
2023-03-29T04:55:07.886Z,46.06
2023-03-29T04:57:34.279Z,46.26
2023-03-29T05:00:00.683Z,44.69
2023-03-29T05:02:27.223Z,45.76
2023-03-29T05:04:53.612Z,45.70
2023-03-29T05:07:19.996Z,45.85
2023-03-29T05:09:46.380Z,45.69
2023-03-29T05:12:12.977Z,45.44
2023-03-29T05:14:39.566Z,43.75
2023-03-29T05:17:06.555Z,46.75
2023-03-29T05:19:33.600Z,46.70
2023-03-29T05:22:00.703Z,46.55
2023-03-29T05:24:27.273Z,47.87
2023-03-29T05:26:53.629Z,48.67
2023-03-29T05:29:20.236Z,47.93
2023-03-29T05:31:47.162Z,44.39
2023-03-29T05:34:13.758Z,43.77
2023-03-29T05:36:40.278Z,45.21
2023-03-29T05:39:07.122Z,47.46
2023-03-29T05:41:34.415Z,47.38
2023-03-29T05:44:00.936Z,46.84
2023-03-29T05:46:27.800Z,45.68
2023-03-29T05:48:54.505Z,46.35
2023-03-29T05:51:24.204Z,45.46
2023-03-29T05:53:51.990Z,46.57
2023-03-29T05:56:19.027Z,46.73
2023-03-29T05:58:46.714Z,45.98
2023-03-29T06:01:14.418Z,44.46
2023-03-29T06:03:41.180Z,43.07
2023-03-29T06:06:09.443Z,45.06
2023-03-29T06:08:36.354Z,46.46
2023-03-29T06:11:06.005Z,47.11
2023-03-29T06:13:37.700Z,45.17
2023-03-29T06:16:05.704Z,44.86
2023-03-29T06:18:33.208Z,44.42
2023-03-29T06:21:00.716Z,47.45
2023-03-29T06:23:27.453Z,48.38
2023-03-29T06:25:55.166Z,48.91
2023-03-29T06:28:22.642Z,47.83
2023-03-29T06:30:50.161Z,47.14
2023-03-29T06:33:16.962Z,46.43
2023-03-29T06:35:46.623Z,43.83
2023-03-29T06:38:13.679Z,44.48
2023-03-29T06:40:40.149Z,46.57
2023-03-29T06:43:06.917Z,47.17
2023-03-29T06:45:36.257Z,45.57
2023-03-29T06:48:04.377Z,42.71
2023-03-29T06:50:31.187Z,43.49
2023-03-29T06:52:57.887Z,43.76
2023-03-29T06:55:25.923Z,45.29
2023-03-29T06:57:53.893Z,45.64
2023-03-29T07:00:29.860Z,46.82
2023-03-29T07:02:58.478Z,44.65
2023-03-29T07:05:28.180Z,42.53
2023-03-29T07:07:56.954Z,41.52
2023-03-29T07:10:28.041Z,40.61
2023-03-29T07:12:55.170Z,40.56
2023-03-29T07:15:21.940Z,39.87
2023-03-29T07:17:49.406Z,40.25
2023-03-29T07:20:16.592Z,38.89
2023-03-29T07:22:44.473Z,38.35
2023-03-29T07:25:12.307Z,36.82
2023-03-29T07:27:40.809Z,36.09
2023-03-29T07:30:11.172Z,35.59
2023-03-29T07:32:39.116Z,35.57
2023-03-29T07:35:07.477Z,35.43
2023-03-29T07:37:36.450Z,35.96
2023-03-29T07:40:08.954Z,35.79
2023-03-29T07:42:38.667Z,34.84
2023-03-29T07:45:07.121Z,33.92
2023-03-29T07:47:33.523Z,33.79
2023-03-29T07:49:59.920Z,33.89
2023-03-29T07:52:28.861Z,35.40
2023-03-29T07:54:55.971Z,35.75
2023-03-29T07:57:24.224Z,36.50
2023-03-29T07:59:50.900Z,37.13
2023-03-29T08:02:17.327Z,38.50
2023-03-29T08:04:43.817Z,38.22
2023-03-29T08:07:10.298Z,37.78
2023-03-29T08:09:37.351Z,38.18
2023-03-29T08:12:04.215Z,38.34
2023-03-29T08:14:31.175Z,37.25
2023-03-29T08:16:57.629Z,36.92
2023-03-29T08:19:24.183Z,37.73
2023-03-29T08:21:50.648Z,38.41
2023-03-29T08:24:19.094Z,37.46
2023-03-29T08:26:47.047Z,36.56
2023-03-29T08:29:13.489Z,36.57
2023-03-29T08:31:39.988Z,36.40
2023-03-29T08:34:07.012Z,36.39
2023-03-29T08:36:33.616Z,36.30
2023-03-29T08:39:01.862Z,36.69
2023-03-29T08:41:52.203Z,36.32
2023-03-29T08:44:31.847Z,36.64
2023-03-29T08:47:26.972Z,36.80
2023-03-29T08:49:56.270Z,37.26
2023-03-29T08:52:32.939Z,37.02
2023-03-29T08:55:01.895Z,36.06
2023-03-29T08:57:34.891Z,35.59
2023-03-29T09:00:05.816Z,35.93
2023-03-29T09:02:35.963Z,35.69
2023-03-29T09:05:14.894Z,36.43
2023-03-29T09:07:42.049Z,35.75
2023-03-29T09:10:15.380Z,34.97
2023-03-29T09:13:07.633Z,36.86
2023-03-29T09:15:44.310Z,37.46
2023-03-29T09:18:35.312Z,36.67
2023-03-29T09:21:11.307Z,35.18
2023-03-29T09:23:58.812Z,36.61
2023-03-29T09:26:47.669Z,35.61
2023-03-29T09:29:19.803Z,34.37
2023-03-29T09:31:48.491Z,33.95
2023-03-29T09:34:22.848Z,33.89
2023-03-29T09:36:55.050Z,33.50
2023-03-29T09:39:22.636Z,34.11
2023-03-29T09:42:09.300Z,34.16
2023-03-29T09:44:40.790Z,35.05
2023-03-29T09:47:20.606Z,34.87
2023-03-29T09:49:51.689Z,34.49
2023-03-29T09:52:19.981Z,33.54
2023-03-29T09:54:46.533Z,32.90
2023-03-29T09:57:16.499Z,32.74
2023-03-29T09:59:45.646Z,32.40
2023-03-29T10:02:13.620Z,33.49
2023-03-29T10:04:42.484Z,33.45
2023-03-29T10:07:20.512Z,34.64
2023-03-29T10:09:51.822Z,35.08
2023-03-29T10:12:19.895Z,35.83
2023-03-29T10:14:51.505Z,32.42
2023-03-29T10:17:23.658Z,32.12
2023-03-29T10:19:58.386Z,31.43
2023-03-29T10:22:27.656Z,32.27
2023-03-29T10:24:57.098Z,31.85
2023-03-29T10:27:31.988Z,31.92
2023-03-29T10:30:00.237Z,33.56
2023-03-29T10:32:36.687Z,32.80
2023-03-29T10:35:15.630Z,33.90
2023-03-29T10:37:49.632Z,32.59
2023-03-29T10:40:26.142Z,32.97
2023-03-29T10:42:57.544Z,31.93
2023-03-29T10:45:35.032Z,33.66
2023-03-29T10:48:03.906Z,30.88
2023-03-29T10:50:35.865Z,29.61
2023-03-29T10:53:03.355Z,27.04
2023-03-29T10:55:39.757Z,30.94
2023-03-29T10:58:24.759Z,29.27
2023-03-29T11:00:56.970Z,29.52
2023-03-29T11:03:40.579Z,28.96
2023-03-29T11:06:14.127Z,29.79
2023-03-29T11:08:53.831Z,28.96
2023-03-29T11:11:30.970Z,30.16
2023-03-29T11:14:04.391Z,29.93
2023-03-29T11:16:33.877Z,29.43
2023-03-29T11:19:16.165Z,30.51
2023-03-29T11:22:13.776Z,29.88
2023-03-29T11:24:55.886Z,28.99
2023-03-29T11:27:40.411Z,31.45
2023-03-29T11:30:35.157Z,31.42
2023-03-29T11:33:41.607Z,29.70
2023-03-29T11:36:37.347Z,32.63
2023-03-29T11:39:17.283Z,31.84
2023-03-29T11:41:48.132Z,32.21
2023-03-29T11:44:24.298Z,32.12
2023-03-29T11:47:07.167Z,32.39
2023-03-29T11:49:57.384Z,32.78
2023-03-29T11:52:33.623Z,30.91
2023-03-29T11:55:10.615Z,31.44
2023-03-29T11:57:42.686Z,30.38
2023-03-29T12:00:15.610Z,29.64
2023-03-29T12:02:59.508Z,29.16
2023-03-29T12:05:45.534Z,28.57
2023-03-29T12:08:38.414Z,29.63
2023-03-29T12:11:23.147Z,28.73
2023-03-29T12:14:15.501Z,31.92
2023-03-29T12:16:48.013Z,30.67
2023-03-29T12:19:21.525Z,29.10
2023-03-29T12:21:49.255Z,28.60
2023-03-29T12:24:18.767Z,30.24
2023-03-29T12:27:27.362Z,28.79
2023-03-29T12:30:13.016Z,30.33
2023-03-29T12:32:47.247Z,31.69
2023-03-29T12:35:26.516Z,31.52
2023-03-29T12:38:02.505Z,31.85
2023-03-29T12:40:39.367Z,28.56
2023-03-29T12:43:08.880Z,29.98
2023-03-29T12:45:42.782Z,30.05
2023-03-29T12:48:17.343Z,31.31
2023-03-29T12:50:52.377Z,30.51
2023-03-29T12:53:22.775Z,30.89
2023-03-29T12:55:55.005Z,32.86
2023-03-29T12:58:36.622Z,32.06
2023-03-29T13:01:09.411Z,31.17
2023-03-29T13:03:44.180Z,30.84
2023-03-29T13:06:11.471Z,32.08
2023-03-29T13:08:43.636Z,30.85
2023-03-29T13:11:27.459Z,31.48
2023-03-29T13:13:54.042Z,30.77
2023-03-29T13:16:33.557Z,30.73
2023-03-29T13:19:18.295Z,30.43
2023-03-29T13:22:07.557Z,30.94
2023-03-29T13:24:49.059Z,33.17
2023-03-29T13:27:43.000Z,31.13
2023-03-29T13:30:20.021Z,30.20
2023-03-29T13:33:01.537Z,30.54
2023-03-29T13:35:45.166Z,32.45
2023-03-29T13:38:27.671Z,31.29
2023-03-29T13:40:53.996Z,30.70
2023-03-29T13:43:34.646Z,30.48
2023-03-29T13:46:01.314Z,31.06
2023-03-29T13:48:49.316Z,30.06
2023-03-29T13:51:18.448Z,30.74
2023-03-29T13:53:54.724Z,32.41
2023-03-29T13:56:34.634Z,31.86
2023-03-29T13:59:15.476Z,31.03
2023-03-29T14:01:49.201Z,31.12
2023-03-29T14:04:25.458Z,31.07
2023-03-29T14:06:55.035Z,32.08
2023-03-29T14:09:28.077Z,33.93
2023-03-29T14:11:54.538Z,31.65
2023-03-29T14:14:26.883Z,32.55
2023-03-29T14:16:56.253Z,33.82
2023-03-29T14:19:36.136Z,33.85
2023-03-29T14:22:09.842Z,33.40
2023-03-29T14:24:47.984Z,34.02
2023-03-29T14:27:15.753Z,34.02
2023-03-29T14:29:45.893Z,33.40
2023-03-29T14:32:16.490Z,31.94
2023-03-29T14:34:43.665Z,33.68
2023-03-29T14:37:13.000Z,33.21
2023-03-29T14:39:41.086Z,33.10
2023-03-29T14:42:17.018Z,32.42
2023-03-29T14:44:44.800Z,32.78
2023-03-29T14:47:20.462Z,32.59
2023-03-29T14:49:47.037Z,33.13
2023-03-29T14:52:14.301Z,32.78
2023-03-29T14:54:45.625Z,33.13
2023-03-29T14:57:16.460Z,34.17
2023-03-29T14:59:43.458Z,33.80
2023-03-29T15:02:23.266Z,33.24
2023-03-29T15:05:04.667Z,32.67
2023-03-29T15:07:33.440Z,32.42
2023-03-29T15:10:02.254Z,33.10
2023-03-29T15:12:30.672Z,32.81
2023-03-29T15:14:58.055Z,34.28
2023-03-29T15:17:47.567Z,31.94
2023-03-29T15:20:29.002Z,33.47
2023-03-29T15:22:58.183Z,32.35
2023-03-29T15:25:28.276Z,32.64
2023-03-29T15:27:58.964Z,33.06
2023-03-29T15:30:45.071Z,32.57
2023-03-29T15:33:18.969Z,33.76
2023-03-29T15:35:50.361Z,33.86
2023-03-29T15:38:17.062Z,33.43
2023-03-29T15:40:43.703Z,32.41
2023-03-29T15:43:11.057Z,32.61
2023-03-29T15:45:37.476Z,32.97
2023-03-29T15:48:14.082Z,33.23
2023-03-29T15:50:40.455Z,34.12
2023-03-29T15:53:15.052Z,34.11
2023-03-29T15:55:45.710Z,34.03
2023-03-29T15:58:15.115Z,34.82
2023-03-29T16:00:44.343Z,34.99
2023-03-29T16:03:15.244Z,34.36
2023-03-29T16:05:43.441Z,33.66
2023-03-29T16:08:13.848Z,34.04
2023-03-29T16:10:41.189Z,33.39
2023-03-29T16:13:07.742Z,34.23
2023-03-29T16:15:36.808Z,35.62
2023-03-29T16:18:03.652Z,35.63
2023-03-29T16:20:30.408Z,35.50
2023-03-29T16:22:56.761Z,36.88
2023-03-29T16:25:23.839Z,36.38
2023-03-29T16:27:51.111Z,36.41
2023-03-29T16:30:17.550Z,37.03
2023-03-29T16:32:44.107Z,37.86
2023-03-29T16:35:27.048Z,38.21
2023-03-29T16:37:53.815Z,37.79
2023-03-29T16:40:21.036Z,38.38
2023-03-29T16:42:47.995Z,38.71
2023-03-29T16:45:14.910Z,38.45
2023-03-29T16:47:44.923Z,39.00
2023-03-29T16:50:12.781Z,39.23
2023-03-29T16:52:39.875Z,39.78
2023-03-29T16:55:08.138Z,39.61
2023-03-29T16:57:35.670Z,40.02
2023-03-29T17:00:02.339Z,40.61
2023-03-29T17:02:28.730Z,40.38
2023-03-29T17:04:55.382Z,40.53
2023-03-29T17:07:21.855Z,40.59
2023-03-29T17:09:48.221Z,41.70
2023-03-29T17:12:14.742Z,40.72
2023-03-29T17:14:41.885Z,40.77
2023-03-29T17:17:08.407Z,40.57
2023-03-29T17:19:34.909Z,40.79
2023-03-29T17:22:01.349Z,41.50
2023-03-29T17:24:27.798Z,41.27
2023-03-29T17:26:54.249Z,40.64
2023-03-29T17:29:20.655Z,42.76
2023-03-29T17:31:47.666Z,42.67
2023-03-29T17:34:15.545Z,42.68
2023-03-29T17:36:42.027Z,43.58
2023-03-29T17:39:09.492Z,44.41
2023-03-29T17:41:36.536Z,44.57
2023-03-29T17:44:03.220Z,44.72
2023-03-29T17:46:30.291Z,43.52
2023-03-29T17:48:59.020Z,44.23
2023-03-29T17:51:25.737Z,43.80
2023-03-29T17:53:52.628Z,42.57
2023-03-29T17:56:22.801Z,42.52
2023-03-29T17:58:50.033Z,43.05
2023-03-29T18:01:19.524Z,42.75
2023-03-29T18:03:50.481Z,43.60
2023-03-29T18:06:20.070Z,44.10
2023-03-29T18:08:46.839Z,44.31
2023-03-29T18:11:18.765Z,44.55
2023-03-29T18:13:45.839Z,44.78
2023-03-29T18:16:12.277Z,44.51
2023-03-29T18:18:38.713Z,44.00
2023-03-29T18:21:06.867Z,43.66
2023-03-29T18:23:33.856Z,43.53
2023-03-29T18:26:04.454Z,43.61
2023-03-29T18:28:31.234Z,43.16
2023-03-29T18:30:58.330Z,43.54
2023-03-29T18:33:25.235Z,44.06
2023-03-29T18:35:51.866Z,45.26
2023-03-29T18:38:20.276Z,45.67
2023-03-29T18:40:50.437Z,44.82
2023-03-29T18:43:16.965Z,43.77
2023-03-29T18:45:44.414Z,43.78
2023-03-29T18:48:11.228Z,43.63
2023-03-29T18:50:38.715Z,43.22
2023-03-29T18:53:05.302Z,43.52
2023-03-29T18:55:31.751Z,43.63
2023-03-29T18:57:58.137Z,43.45
2023-03-29T19:00:25.080Z,43.56
2023-03-29T19:02:51.626Z,43.63
2023-03-29T19:05:18.222Z,43.67
2023-03-29T19:07:44.619Z,43.69
2023-03-29T19:10:12.032Z,44.07
2023-03-29T19:12:38.518Z,44.00
2023-03-29T19:15:05.623Z,43.73
2023-03-29T19:17:32.074Z,43.74
2023-03-29T19:19:58.808Z,43.41
2023-03-29T19:22:25.305Z,43.63
2023-03-29T19:24:51.742Z,43.80
2023-03-29T19:27:18.527Z,43.82
2023-03-29T19:29:46.086Z,43.66
2023-03-29T19:32:12.479Z,43.61
2023-03-29T19:34:38.873Z,44.26
2023-03-29T19:37:05.333Z,45.68
2023-03-29T19:39:31.998Z,47.56
2023-03-29T19:41:58.389Z,48.03
2023-03-29T19:44:24.937Z,48.19
2023-03-29T19:46:51.755Z,47.22
2023-03-29T19:49:18.715Z,47.06
2023-03-29T19:51:45.240Z,47.09
2023-03-29T19:54:17.197Z,47.70
2023-03-29T19:56:43.879Z,48.20
2023-03-29T19:59:14.610Z,48.55
2023-03-29T20:01:43.921Z,49.13
2023-03-29T20:04:11.805Z,48.97
2023-03-29T20:06:38.352Z,48.88
2023-03-29T20:09:05.303Z,50.82
2023-03-29T20:11:31.781Z,51.23
2023-03-29T20:13:58.196Z,51.60
2023-03-29T20:16:26.019Z,52.40
2023-03-29T20:18:53.942Z,52.50
2023-03-29T20:21:20.562Z,50.60
2023-03-29T20:23:47.349Z,50.86
2023-03-29T20:26:14.129Z,50.50
2023-03-29T20:28:40.563Z,51.24
2023-03-29T20:31:10.592Z,51.73
2023-03-29T20:33:37.156Z,51.83
2023-03-29T20:36:04.526Z,51.32
2023-03-29T20:38:31.297Z,51.62
2023-03-29T20:40:57.741Z,50.98
2023-03-29T20:43:24.246Z,50.86
2023-03-29T20:45:53.965Z,53.54
2023-03-29T20:48:24.077Z,53.55
2023-03-29T20:50:50.831Z,52.49
2023-03-29T20:53:18.272Z,51.92
2023-03-29T20:55:44.952Z,52.31
2023-03-29T20:58:11.527Z,52.89
2023-03-29T21:00:38.224Z,51.62
2023-03-29T21:03:04.834Z,52.54
2023-03-29T21:05:33.309Z,53.92
2023-03-29T21:07:59.992Z,53.56
2023-03-29T21:10:28.024Z,53.99
2023-03-29T21:12:54.635Z,53.27
2023-03-29T21:15:21.312Z,53.08
2023-03-29T21:17:47.862Z,52.65
2023-03-29T21:20:15.430Z,53.60
2023-03-29T21:22:45.754Z,54.04
2023-03-29T21:25:15.532Z,52.36
2023-03-29T21:27:42.874Z,51.58
2023-03-29T21:30:09.877Z,52.14
2023-03-29T21:32:36.706Z,55.14
2023-03-29T21:35:03.278Z,54.89
2023-03-29T21:37:29.661Z,51.41
2023-03-29T21:39:56.051Z,50.99
2023-03-29T21:42:22.556Z,51.03
2023-03-29T21:44:48.955Z,51.55
2023-03-29T21:47:15.357Z,52.77
2023-03-29T21:49:41.738Z,51.89
2023-03-29T21:52:08.234Z,50.58
2023-03-29T21:54:34.805Z,51.03
2023-03-29T21:57:01.282Z,50.56
2023-03-29T21:59:27.943Z,50.32
2023-03-29T22:01:54.504Z,50.30
2023-03-29T22:04:35.395Z,49.97
2023-03-29T22:07:03.403Z,49.65
2023-03-29T22:09:29.791Z,50.01
2023-03-29T22:11:56.872Z,50.31
2023-03-29T22:14:23.231Z,50.24
2023-03-29T22:16:49.665Z,50.61
2023-03-29T22:19:16.039Z,51.06
2023-03-29T22:21:42.436Z,51.77
2023-03-29T22:24:08.845Z,52.01
2023-03-29T22:26:35.468Z,52.32
2023-03-29T22:29:02.186Z,52.61
2023-03-29T22:31:29.773Z,52.87
2023-03-29T22:33:56.748Z,53.22
2023-03-29T22:36:26.114Z,53.75
2023-03-29T22:38:53.431Z,54.10
2023-03-29T22:41:24.749Z,54.47
2023-03-29T22:43:54.971Z,54.44
2023-03-29T22:46:22.208Z,54.78
2023-03-29T22:48:49.375Z,54.87
2023-03-29T22:51:16.202Z,54.87
2023-03-29T22:53:42.594Z,55.42
2023-03-29T22:56:09.567Z,56.47
2023-03-29T22:58:37.102Z,56.86
2023-03-29T23:01:04.174Z,58.20
2023-03-29T23:03:31.055Z,58.25
2023-03-29T23:05:59.112Z,58.52
2023-03-29T23:08:26.216Z,59.00
2023-03-29T23:10:52.607Z,59.15
2023-03-29T23:13:28.587Z,58.71
2023-03-29T23:15:59.248Z,57.46
2023-03-29T23:18:27.600Z,58.77
2023-03-29T23:20:56.439Z,58.83
2023-03-29T23:23:24.404Z,58.18
2023-03-29T23:25:52.334Z,58.86
2023-03-29T23:28:21.775Z,59.86
2023-03-29T23:30:58.516Z,60.18
2023-03-29T23:33:25.818Z,58.94
2023-03-29T23:35:53.084Z,59.33
2023-03-29T23:38:19.958Z,59.64
2023-03-29T23:40:58.811Z,60.07
2023-03-29T23:43:27.214Z,59.41
2023-03-29T23:45:57.520Z,59.58
2023-03-29T23:48:24.328Z,59.86
2023-03-29T23:50:50.734Z,60.96
2023-03-29T23:53:17.561Z,61.16
2023-03-29T23:55:44.616Z,60.50
2023-03-29T23:58:11.611Z,58.65
